Time;durP1;ratioP1;P1;durP2;ratioP2;P2;SDS_P1;SDS_P2;PMS_P1;PMS_P2;Temp;Humidity;BMP_temperature;BMP_pressure;BME280_temperature;BME280_humidity;BME280_pressure;Samples;Min_cycle;Max_cycle;Signal;HPM_P1;HPM_P2
2022/10/08 00:00:15;;;;;;;5.90;3.63;;;13.50;99.90;;;;;;5130528;27;20240;-70
2022/10/08 00:02:41;;;;;;;6.83;3.63;;;13.50;99.90;;;;;;5130810;27;20209;-71
2022/10/08 00:05:09;;;;;;;4.87;3.50;;;13.40;99.90;;;;;;5130488;27;20657;-70
2022/10/08 00:07:36;;;;;;;4.83;3.43;;;13.40;99.90;;;;;;5130634;27;20254;-71
2022/10/08 00:10:06;;;;;;;5.13;3.47;;;13.40;99.90;;;;;;5130520;27;20239;-71
2022/10/08 00:12:33;;;;;;;4.03;3.20;;;13.50;99.90;;;;;;5130305;27;20221;-70
2022/10/08 00:15:00;;;;;;;4.93;3.53;;;13.40;99.90;;;;;;5130113;27;20198;-71
2022/10/08 00:17:27;;;;;;;4.20;3.70;;;13.30;99.90;;;;;;5130602;27;20209;-71
2022/10/08 00:19:56;;;;;;;5.10;3.57;;;13.20;99.90;;;;;;5130502;27;20202;-71
2022/10/08 00:22:23;;;;;;;5.67;3.73;;;13.10;99.90;;;;;;5130323;27;20219;-70
2022/10/08 00:24:52;;;;;;;4.97;4.17;;;13.20;99.90;;;;;;5130157;27;20204;-71
2022/10/08 00:27:22;;;;;;;4.13;3.83;;;13.10;99.90;;;;;;5130159;27;20300;-71
2022/10/08 00:29:50;;;;;;;4.60;4.10;;;13.00;99.90;;;;;;5130113;27;20286;-71
2022/10/08 00:32:18;;;;;;;4.57;3.90;;;13.10;99.90;;;;;;5129727;27;20226;-71
2022/10/08 00:34:45;;;;;;;3.90;3.60;;;13.00;99.90;;;;;;5123093;27;20210;-71
2022/10/08 00:37:14;;;;;;;5.30;4.10;;;13.00;99.90;;;;;;5109628;28;20264;-71
2022/10/08 00:39:41;;;;;;;4.73;4.20;;;12.90;99.90;;;;;;5125907;27;20206;-71
2022/10/08 00:42:11;;;;;;;4.93;4.20;;;12.90;99.90;;;;;;5129507;27;20793;-71
2022/10/08 00:44:55;;;;;;;5.10;4.60;;;12.70;99.90;;;;;;5130120;27;20217;-71
2022/10/08 00:47:39;;;;;;;7.53;4.67;;;12.70;99.90;;;;;;5116840;27;20198;-71
2022/10/08 00:50:11;;;;;;;4.47;4.03;;;12.60;99.90;;;;;;5125863;27;20714;-71
2022/10/08 00:52:42;;;;;;;6.80;4.27;;;12.50;99.90;;;;;;5129623;27;20718;-70
2022/10/08 00:55:11;;;;;;;5.57;4.40;;;12.50;99.90;;;;;;5129597;27;20647;-71
2022/10/08 00:57:38;;;;;;;4.77;4.20;;;12.50;99.90;;;;;;5129701;27;20280;-71
2022/10/08 01:00:10;;;;;;;6.43;4.47;;;12.60;99.90;;;;;;5129223;27;20233;-71
2022/10/08 01:02:36;;;;;;;7.37;4.70;;;12.50;99.90;;;;;;5129640;27;20197;-70
2022/10/08 01:05:05;;;;;;;5.83;4.30;;;12.50;99.90;;;;;;5129238;27;20672;-70
2022/10/08 01:07:38;;;;;;;5.23;3.97;;;12.50;99.90;;;;;;5129011;27;20995;-70
2022/10/08 01:10:10;;;;;;;4.67;4.27;;;12.60;99.90;;;;;;5129118;27;20286;-69
2022/10/08 01:12:49;;;;;;;5.40;4.30;;;12.50;99.90;;;;;;5128983;27;20226;-68
2022/10/08 01:15:24;;;;;;;4.33;3.93;;;12.50;99.90;;;;;;5113824;27;21013;-69
2022/10/08 01:18:02;;;;;;;6.13;4.00;;;12.50;99.90;;;;;;5108825;27;20197;-69
2022/10/08 01:20:36;;;;;;;7.20;4.00;;;12.50;99.90;;;;;;5117004;27;20217;-69
2022/10/08 01:23:37;;;;;;;4.00;3.70;;;12.50;99.90;;;;;;5129019;27;20527;-69
2022/10/08 01:26:16;;;;;;;4.83;3.97;;;12.50;99.90;;;;;;5124373;27;20694;-69
2022/10/08 01:28:51;;;;;;;5.20;3.93;;;12.60;99.90;;;;;;5128982;27;20197;-70
2022/10/08 01:31:23;;;;;;;4.87;3.43;;;12.60;99.90;;;;;;5128972;27;20436;-70
2022/10/08 01:33:54;;;;;;;4.43;3.53;;;12.60;99.90;;;;;;5128413;27;20208;-70
2022/10/08 01:36:23;;;;;;;4.07;3.77;;;12.70;99.90;;;;;;5121119;27;20253;-70
2022/10/08 01:38:53;;;;;;;7.50;3.53;;;12.70;99.90;;;;;;5128363;27;20735;-70
2022/10/08 01:41:24;;;;;;;4.30;3.87;;;12.70;99.90;;;;;;5128449;27;20201;-70
2022/10/08 01:44:00;;;;;;;4.00;3.60;;;12.70;99.90;;;;;;5128939;27;20189;-70
2022/10/08 01:46:30;;;;;;;4.10;3.40;;;12.70;99.90;;;;;;5121335;27;20212;-70
2022/10/08 01:49:03;;;;;;;5.23;3.63;;;12.70;99.90;;;;;;5120469;27;20649;-69
2022/10/08 01:51:33;;;;;;;4.37;3.40;;;12.70;99.90;;;;;;5107952;28;20236;-70
2022/10/08 01:54:03;;;;;;;5.13;3.63;;;12.70;99.90;;;;;;5111066;27;20211;-69
2022/10/08 01:56:33;;;;;;;4.30;4.00;;;12.70;99.90;;;;;;5128455;27;20190;-70
2022/10/08 01:59:06;;;;;;;7.30;4.10;;;12.80;99.90;;;;;;5128599;27;20201;-69
2022/10/08 02:01:38;;;;;;;6.43;3.40;;;12.70;99.90;;;;;;5128339;27;20232;-69
2022/10/08 02:06:55;;;;;;;5.67;3.63;;;12.70;99.90;;;;;;5107756;28;20660;-69
2022/10/08 02:09:24;;;;;;;5.00;3.50;;;12.70;99.90;;;;;;5127526;27;20209;-68
2022/10/08 02:11:51;;;;;;;6.67;4.13;;;12.70;99.90;;;;;;5127489;27;20232;-68
2022/10/08 02:14:20;;;;;;;5.27;4.00;;;12.70;99.90;;;;;;5128626;27;20213;-69
2022/10/08 02:16:54;;;;;;;6.20;4.40;;;12.80;99.90;;;;;;5128258;27;20288;-68
2022/10/08 02:19:29;;;;;;;6.20;3.90;;;12.80;99.90;;;;;;5128546;27;20203;-69
2022/10/08 02:21:59;;;;;;;5.43;3.73;;;12.80;99.90;;;;;;5128235;27;20216;-68
2022/10/08 02:24:31;;;;;;;8.87;4.30;;;12.80;99.90;;;;;;5128377;27;20206;-68
2022/10/08 02:27:02;;;;;;;4.67;4.27;;;12.80;99.90;;;;;;5127825;27;20556;-68
2022/10/08 02:29:36;;;;;;;5.63;4.10;;;12.70;99.90;;;;;;5128447;27;20636;-68
2022/10/08 02:32:10;;;;;;;5.50;4.10;;;12.70;99.90;;;;;;5128368;27;20213;-68
2022/10/08 02:34:41;;;;;;;4.80;4.30;;;12.70;99.90;;;;;;5128241;27;20234;-68
2022/10/08 02:37:10;;;;;;;4.47;4.07;;;12.70;99.90;;;;;;5128150;27;20717;-68
2022/10/08 02:39:42;;;;;;;6.20;4.20;;;12.70;99.90;;;;;;5128541;27;20201;-67
2022/10/08 02:42:11;;;;;;;5.30;4.47;;;12.70;99.90;;;;;;5128058;27;20186;-69
2022/10/08 02:44:43;;;;;;;4.60;4.20;;;12.70;99.90;;;;;;5128423;27;20225;-69
2022/10/08 02:47:14;;;;;;;6.13;4.33;;;12.60;99.90;;;;;;5128359;27;20193;-68
2022/10/08 02:49:45;;;;;;;5.47;3.93;;;12.60;99.90;;;;;;5115976;27;20190;-69
2022/10/08 02:52:13;;;;;;;4.70;4.27;;;12.60;99.90;;;;;;5119322;28;20218;-69
2022/10/08 02:54:42;;;;;;;8.03;4.33;;;12.60;99.90;;;;;;5127906;27;20610;-69
2022/10/08 02:57:15;;;;;;;4.70;3.70;;;12.60;99.90;;;;;;5127798;27;20206;-70
2022/10/08 02:59:44;;;;;;;7.63;4.00;;;12.60;99.90;;;;;;5128568;27;20197;-69
2022/10/08 03:02:17;;;;;;;5.30;4.90;;;12.60;99.90;;;;;;5131720;27;20282;-69
2022/10/08 03:04:49;;;;;;;4.83;4.17;;;12.60;99.90;;;;;;5131931;27;20193;-70
2022/10/08 03:07:16;;;;;;;5.20;4.37;;;12.60;99.90;;;;;;5131401;27;20551;-71
2022/10/08 03:09:45;;;;;;;5.30;4.23;;;12.60;99.90;;;;;;5131902;27;20201;-69
2022/10/08 03:12:13;;;;;;;4.20;3.83;;;12.50;99.90;;;;;;5131427;27;20229;-68
2022/10/08 03:14:45;;;;;;;7.57;4.10;;;12.60;99.90;;;;;;5131109;27;20304;-69
2022/10/08 03:17:16;;;;;;;4.93;4.30;;;12.40;99.90;;;;;;5110922;28;20186;-70
2022/10/08 03:19:42;;;;;;;4.90;4.27;;;12.40;99.90;;;;;;5110795;28;20573;-68
2022/10/08 03:22:09;;;;;;;6.57;4.23;;;12.30;99.90;;;;;;5119971;27;20300;-68
2022/10/08 03:24:36;;;;;;;5.73;4.33;;;12.20;99.90;;;;;;5124296;27;20210;-69
2022/10/08 03:27:04;;;;;;;5.63;4.53;;;12.30;99.90;;;;;;5131063;27;20573;-68
2022/10/08 03:29:30;;;;;;;4.40;3.83;;;12.30;99.90;;;;;;5131811;27;20205;-68
2022/10/08 03:31:58;;;;;;;4.33;3.73;;;12.30;99.90;;;;;;5131312;27;20240;-69
2022/10/08 03:34:26;;;;;;;5.00;4.07;;;12.20;99.90;;;;;;5131172;27;20193;-70
2022/10/08 03:36:52;;;;;;;5.60;4.00;;;12.30;99.90;;;;;;5131086;27;20216;-69
2022/10/08 03:39:19;;;;;;;6.37;3.97;;;12.30;99.90;;;;;;5131088;27;20216;-69
2022/10/08 03:41:46;;;;;;;5.67;3.90;;;12.30;99.90;;;;;;5130874;27;20213;-69
2022/10/08 03:44:13;;;;;;;4.73;3.87;;;12.30;99.90;;;;;;5130830;27;20225;-69
2022/10/08 03:46:39;;;;;;;5.47;3.97;;;12.30;99.90;;;;;;5131156;27;20201;-69
2022/10/08 03:49:08;;;;;;;5.83;4.03;;;12.30;99.90;;;;;;5130725;27;20213;-69
2022/10/08 03:51:34;;;;;;;6.97;4.20;;;12.40;99.90;;;;;;5131009;27;20583;-69
2022/10/08 03:54:01;;;;;;;6.53;3.93;;;12.40;99.90;;;;;;5131045;27;20202;-69
2022/10/08 03:56:28;;;;;;;5.07;4.00;;;12.40;99.90;;;;;;5130591;27;20211;-69
2022/10/08 03:58:57;;;;;;;4.00;3.63;;;12.20;99.90;;;;;;5130645;27;20201;-69
2022/10/08 04:01:25;;;;;;;5.00;3.60;;;12.30;99.90;;;;;;5130440;27;20225;-69
2022/10/08 04:03:52;;;;;;;7.10;4.03;;;12.30;99.90;;;;;;5130539;27;20547;-69
2022/10/08 04:06:20;;;;;;;6.40;3.93;;;12.40;99.90;;;;;;5130699;27;20240;-69
2022/10/08 04:08:47;;;;;;;4.37;3.63;;;12.40;99.90;;;;;;5130531;27;20212;-69
2022/10/08 04:11:16;;;;;;;4.83;4.23;;;12.40;99.90;;;;;;5126501;27;20198;-69
2022/10/08 04:13:44;;;;;;;7.27;3.93;;;12.40;99.90;;;;;;5125969;27;20240;-68
2022/10/08 04:16:13;;;;;;;4.10;3.77;;;12.40;99.90;;;;;;5130353;27;20212;-69
2022/10/08 04:18:40;;;;;;;4.00;3.70;;;12.40;99.90;;;;;;5130612;27;20210;-69
2022/10/08 04:21:09;;;;;;;4.57;3.53;;;12.40;99.90;;;;;;5128138;27;20690;-69
2022/10/08 04:23:38;;;;;;;4.53;3.67;;;12.40;99.90;;;;;;5109911;28;20225;-69
2022/10/08 04:26:05;;;;;;;4.63;3.90;;;12.40;99.90;;;;;;5109657;28;20209;-70
2022/10/08 04:28:33;;;;;;;4.73;4.00;;;12.40;99.90;;;;;;5122888;27;20678;-70
2022/10/08 04:31:01;;;;;;;4.57;4.07;;;12.50;99.90;;;;;;5129053;27;20209;-70
2022/10/08 04:33:29;;;;;;;4.33;3.80;;;12.50;99.90;;;;;;5109761;28;20237;-70
2022/10/08 04:35:56;;;;;;;5.40;3.80;;;12.40;99.90;;;;;;5122580;27;20216;-68
2022/10/08 04:38:23;;;;;;;6.43;4.07;;;12.40;99.90;;;;;;5130115;27;20687;-69
2022/10/08 04:41:03;;;;;;;5.67;3.70;;;12.30;99.90;;;;;;5130063;27;20201;-69
2022/10/08 04:43:30;;;;;;;5.43;3.70;;;12.40;99.90;;;;;;5129859;27;20188;-68
2022/10/08 04:45:57;;;;;;;4.10;3.43;;;12.40;99.90;;;;;;5129719;27;20726;-69
2022/10/08 04:48:24;;;;;;;5.03;3.93;;;12.30;99.90;;;;;;5126993;27;20660;-71
2022/10/08 04:50:55;;;;;;;4.53;3.57;;;12.40;99.90;;;;;;5109436;28;20217;-69
2022/10/08 04:53:22;;;;;;;4.63;3.27;;;12.40;99.90;;;;;;5130049;27;20229;-70
2022/10/08 04:55:48;;;;;;;4.43;3.17;;;12.40;99.90;;;;;;5129543;27;20224;-69
2022/10/08 04:58:16;;;;;;;6.60;3.50;;;12.50;99.90;;;;;;5129438;27;20202;-69
2022/10/08 05:00:43;;;;;;;5.00;3.50;;;12.50;99.90;;;;;;5129057;27;20735;-69
2022/10/08 05:03:10;;;;;;;8.53;4.40;;;12.40;99.90;;;;;;5129806;27;20551;-69
2022/10/08 05:05:39;;;;;;;4.13;3.73;;;12.40;99.90;;;;;;5118443;27;20209;-69
2022/10/08 05:08:06;;;;;;;6.33;3.40;;;12.40;99.90;;;;;;5108842;28;20214;-69
2022/10/08 05:10:33;;;;;;;7.40;3.57;;;12.40;99.90;;;;;;5108881;28;20201;-68
2022/10/08 05:12:59;;;;;;;6.47;3.60;;;12.30;99.90;;;;;;5108682;28;20254;-68
2022/10/08 05:15:27;;;;;;;4.80;3.90;;;12.40;99.90;;;;;;5109109;28;20576;-69
2022/10/08 05:17:54;;;;;;;4.73;4.00;;;12.30;99.90;;;;;;5121557;27;20197;-69
2022/10/08 05:20:21;;;;;;;7.77;4.43;;;12.30;99.90;;;;;;5129306;27;20225;-69
2022/10/08 05:22:48;;;;;;;4.93;4.20;;;12.20;99.90;;;;;;5111421;27;20217;-69
2022/10/08 05:25:15;;;;;;;4.57;4.00;;;12.20;99.90;;;;;;5109209;28;20209;-70
2022/10/08 05:27:41;;;;;;;6.73;4.27;;;12.30;99.90;;;;;;5108257;28;20223;-71
2022/10/08 05:30:09;;;;;;;5.17;4.17;;;12.20;99.90;;;;;;5108799;28;20229;-68
2022/10/08 05:32:37;;;;;;;7.00;3.87;;;12.20;99.90;;;;;;5108383;28;20232;-67
2022/10/08 05:35:04;;;;;;;5.03;3.90;;;12.20;99.90;;;;;;5113505;27;20364;-67
2022/10/08 05:37:32;;;;;;;4.23;3.70;;;12.20;99.90;;;;;;5108414;28;20206;-68
2022/10/08 05:39:58;;;;;;;4.43;4.00;;;12.20;99.90;;;;;;5112279;27;20207;-68
2022/10/08 05:42:25;;;;;;;4.93;4.00;;;12.10;99.90;;;;;;5119562;27;20210;-68
2022/10/08 05:44:52;;;;;;;7.43;4.20;;;12.10;99.90;;;;;;5106579;28;20323;-68
2022/10/08 05:47:19;;;;;;;4.30;3.90;;;12.00;99.90;;;;;;5106690;28;20210;-68
2022/10/08 05:49:47;;;;;;;5.77;4.43;;;12.00;99.90;;;;;;5120468;27;20212;-68
2022/10/08 05:52:13;;;;;;;4.13;3.77;;;11.90;99.90;;;;;;5126085;27;20853;-68
2022/10/08 05:54:40;;;;;;;8.20;4.00;;;11.90;99.90;;;;;;5126584;27;20216;-68
2022/10/08 05:57:07;;;;;;;6.90;5.07;;;11.90;99.90;;;;;;5126235;27;20603;-68
2022/10/08 05:59:34;;;;;;;5.40;4.83;;;11.90;99.90;;;;;;5126350;27;20201;-69
2022/10/08 06:02:00;;;;;;;5.73;4.67;;;11.90;99.90;;;;;;5126297;27;20217;-69
2022/10/08 06:04:27;;;;;;;6.70;4.37;;;11.80;99.90;;;;;;5116622;27;20820;-68
2022/10/08 06:06:55;;;;;;;7.13;4.67;;;11.80;99.90;;;;;;5105835;28;20543;-69
2022/10/08 06:09:22;;;;;;;6.17;4.27;;;11.80;99.90;;;;;;5124741;27;20202;-69
2022/10/08 06:11:49;;;;;;;7.67;4.37;;;11.70;99.90;;;;;;5126520;27;20224;-71
2022/10/08 06:14:18;;;;;;;6.37;4.30;;;11.60;99.90;;;;;;5126633;27;20236;-69
2022/10/08 06:16:45;;;;;;;8.57;4.33;;;11.60;99.90;;;;;;5126321;27;20849;-66
2022/10/08 06:19:12;;;;;;;7.93;4.73;;;11.60;99.90;;;;;;5126429;27;20297;-66
2022/10/08 06:21:38;;;;;;;7.73;6.23;;;11.60;99.90;;;;;;5126310;27;20210;-67
2022/10/08 06:24:10;;;;;;;6.00;5.43;;;11.60;99.90;;;;;;5125983;27;20297;-67
2022/10/08 06:26:38;;;;;;;7.97;4.17;;;11.60;99.90;;;;;;5111421;28;20201;-67
2022/10/08 06:29:05;;;;;;;5.40;3.87;;;11.70;99.90;;;;;;5125966;27;20217;-67
2022/10/08 06:31:33;;;;;;;9.53;3.77;;;11.60;99.90;;;;;;5126433;27;20201;-67
2022/10/08 06:34:01;;;;;;;4.97;4.10;;;11.60;99.90;;;;;;5126087;27;20233;-67
2022/10/08 06:36:29;;;;;;;6.53;4.33;;;11.60;99.90;;;;;;5110334;28;20209;-67
2022/10/08 06:38:57;;;;;;;8.13;4.60;;;11.60;99.90;;;;;;5110129;28;20209;-67
2022/10/08 06:41:29;;;;;;;4.97;3.67;;;11.60;99.90;;;;;;5121559;27;20201;-67
2022/10/08 06:43:56;;;;;;;5.93;4.07;;;11.60;99.90;;;;;;5131477;27;20227;-68
2022/10/08 06:46:23;;;;;;;4.50;3.97;;;11.70;99.90;;;;;;5131003;27;20686;-67
2022/10/08 06:48:49;;;;;;;7.47;4.00;;;11.70;99.90;;;;;;5130791;27;20227;-68
2022/10/08 06:51:17;;;;;;;6.00;3.80;;;11.80;99.90;;;;;;5127387;27;20216;-67
2022/10/08 06:53:46;;;;;;;3.77;3.37;;;11.90;99.90;;;;;;5110280;28;20232;-67
2022/10/08 06:56:16;;;;;;;8.27;4.00;;;12.00;99.90;;;;;;5111459;27;20213;-67
2022/10/08 06:58:46;;;;;;;7.10;3.87;;;12.10;99.90;;;;;;5132505;27;20639;-68
2022/10/08 07:01:18;;;;;;;5.83;3.63;;;12.20;99.90;;;;;;5132008;27;20233;-67
2022/10/08 07:03:48;;;;;;;3.53;3.20;;;12.20;99.90;;;;;;5132204;27;20190;-67
2022/10/08 07:06:15;;;;;;;6.17;3.63;;;12.20;99.90;;;;;;5132111;27;20208;-67
2022/10/08 07:08:42;;;;;;;4.73;3.80;;;12.10;99.90;;;;;;5131786;27;20209;-68
2022/10/08 07:11:10;;;;;;;4.40;3.43;;;12.10;99.90;;;;;;5132001;27;20212;-67
2022/10/08 07:13:38;;;;;;;4.83;3.37;;;12.20;99.90;;;;;;5131656;27;20229;-67
2022/10/08 07:16:08;;;;;;;3.93;3.53;;;12.20;99.90;;;;;;5125419;27;20563;-67
2022/10/08 07:18:36;;;;;;;5.23;3.83;;;12.30;99.90;;;;;;5131672;27;20189;-67
2022/10/08 07:21:04;;;;;;;5.43;3.20;;;12.30;99.90;;;;;;5131578;27;20997;-68
2022/10/08 07:23:31;;;;;;;5.23;3.27;;;12.40;99.90;;;;;;5121187;27;20217;-67
2022/10/08 07:26:00;;;;;;;7.63;3.37;;;12.50;99.90;;;;;;5113744;27;20205;-67
2022/10/08 07:28:28;;;;;;;5.73;3.50;;;12.60;99.90;;;;;;5131373;27;20746;-69
2022/10/08 07:30:55;;;;;;;5.27;3.37;;;12.70;99.90;;;;;;5131585;27;20201;-68
2022/10/08 07:33:23;;;;;;;9.30;3.73;;;12.80;99.90;;;;;;5131466;27;20232;-68
2022/10/08 07:35:50;;;;;;;5.47;3.07;;;12.80;99.90;;;;;;5131267;27;20213;-68
2022/10/08 07:38:18;;;;;;;8.00;3.43;;;12.90;99.90;;;;;;5131431;27;20205;-68
2022/10/08 07:40:45;;;;;;;7.63;3.07;;;13.10;99.90;;;;;;5130799;27;20686;-68
2022/10/08 07:43:12;;;;;;;8.47;3.20;;;13.20;99.90;;;;;;5131284;27;20205;-68
2022/10/08 07:45:44;;;;;;;6.23;3.00;;;13.30;99.90;;;;;;5130202;27;20225;-68
2022/10/08 07:48:11;;;;;;;5.00;2.70;;;13.50;99.90;;;;;;5131068;27;20190;-68
2022/10/08 07:50:40;;;;;;;8.43;2.90;;;13.60;99.90;;;;;;5131182;27;20198;-68
2022/10/08 07:53:06;;;;;;;4.20;2.53;;;13.60;99.90;;;;;;5130992;27;20233;-68
2022/10/08 07:55:33;;;;;;;5.50;3.20;;;13.70;99.90;;;;;;5130834;27;20212;-68
2022/10/08 07:58:00;;;;;;;4.67;2.83;;;13.80;99.90;;;;;;5114847;27;20260;-68
2022/10/08 08:00:26;;;;;;;6.67;3.00;;;13.90;99.90;;;;;;5130678;27;20240;-68
2022/10/08 08:02:53;;;;;;;5.30;2.67;;;13.90;99.90;;;;;;5130526;27;20205;-68
2022/10/08 08:05:20;;;;;;;9.80;2.77;;;14.00;99.90;;;;;;5130843;27;20600;-68
2022/10/08 08:07:48;;;;;;;7.13;2.60;;;14.10;99.90;;;;;;5130628;27;20571;-68
2022/10/08 08:10:15;;;;;;;7.13;2.60;;;14.20;99.90;;;;;;5130781;27;20206;-68
2022/10/08 08:12:42;;;;;;;6.43;2.50;;;14.30;99.90;;;;;;5130695;27;20204;-68
2022/10/08 08:15:09;;;;;;;9.53;2.57;;;14.30;99.90;;;;;;5130738;27;20194;-68
2022/10/08 08:17:36;;;;;;;8.87;2.30;;;14.40;99.90;;;;;;5116064;27;20206;-67
2022/10/08 08:20:03;;;;;;;6.03;2.43;;;14.50;99.90;;;;;;5110103;28;20568;-67
2022/10/08 08:22:30;;;;;;;5.77;2.57;;;14.50;99.90;;;;;;5124373;27;20202;-68
2022/10/08 08:24:58;;;;;;;5.40;2.40;;;14.50;99.90;;;;;;5130559;27;20292;-68
2022/10/08 08:27:25;;;;;;;8.27;2.87;;;14.60;99.90;;;;;;5129968;27;20213;-68
2022/10/08 08:29:52;;;;;;;9.83;2.83;;;14.70;99.90;;;;;;5130376;27;20201;-68
2022/10/08 08:32:20;;;;;;;14.53;7.50;;;14.70;99.90;;;;;;5129507;27;20583;-68
2022/10/08 08:34:46;;;;;;;8.77;4.43;;;14.80;99.90;;;;;;5129900;27;20229;-68
2022/10/08 08:37:13;;;;;;;11.53;3.50;;;14.80;99.90;;;;;;5130283;27;20201;-68
2022/10/08 08:39:40;;;;;;;8.33;3.07;;;14.90;99.90;;;;;;5129248;27;20488;-68
2022/10/08 08:42:32;;;;;;;7.30;2.80;;;14.90;99.90;;;;;;5128837;27;20194;-68
2022/10/08 08:45:01;;;;;;;7.60;3.07;;;15.00;99.90;;;;;;5130142;27;20225;-68
2022/10/08 08:47:34;;;;;;;7.03;3.30;;;15.00;99.90;;;;;;5129737;27;20205;-68
2022/10/08 08:50:06;;;;;;;9.23;3.17;;;15.10;99.90;;;;;;5113225;27;20551;-68
2022/10/08 08:52:37;;;;;;;7.10;2.97;;;15.20;99.90;;;;;;5123905;27;20217;-68
2022/10/08 08:55:13;;;;;;;8.00;3.90;;;15.30;99.90;;;;;;5129697;27;20221;-68
2022/10/08 08:57:52;;;;;;;7.93;2.53;;;15.30;99.90;;;;;;5129843;27;20263;-68
2022/10/08 09:00:21;;;;;;;13.87;3.67;;;15.20;99.90;;;;;;5129803;27;20232;-68
2022/10/08 09:02:55;;;;;;;9.00;3.00;;;15.30;99.90;;;;;;5129480;27;20257;-68
2022/10/08 09:05:24;;;;;;;8.40;2.80;;;15.40;99.90;;;;;;5127177;27;20197;-68
2022/10/08 09:07:56;;;;;;;8.70;2.60;;;15.50;99.90;;;;;;5129368;27;20206;-68
2022/10/08 09:10:28;;;;;;;7.23;2.67;;;15.40;99.90;;;;;;5129523;27;20197;-69
2022/10/08 09:12:57;;;;;;;6.60;3.30;;;15.50;99.90;;;;;;5129104;27;20211;-69
2022/10/08 09:15:30;;;;;;;6.90;2.93;;;15.40;99.90;;;;;;5113920;27;20237;-69
2022/10/08 09:17:57;;;;;;;8.30;3.20;;;15.30;99.90;;;;;;5109586;27;20789;-69
2022/10/08 09:20:25;;;;;;;8.77;3.30;;;15.30;99.90;;;;;;5113820;27;20193;-69
2022/10/08 09:22:54;;;;;;;8.60;3.17;;;15.30;99.90;;;;;;5129378;27;20209;-69
2022/10/08 09:25:24;;;;;;;7.90;3.40;;;15.20;99.90;;;;;;5129143;27;20223;-69
2022/10/08 09:27:52;;;;;;;8.47;3.70;;;15.20;99.90;;;;;;5129152;27;20216;-69
2022/10/08 09:30:34;;;;;;;6.63;3.80;;;15.10;99.90;;;;;;5129314;27;20202;-69
2022/10/08 09:33:03;;;;;;;5.40;3.50;;;15.10;99.90;;;;;;5129208;27;20205;-69
2022/10/08 09:35:34;;;;;;;8.07;3.60;;;15.10;99.90;;;;;;5128876;27;20232;-69
2022/10/08 09:38:01;;;;;;;8.30;3.53;;;15.10;99.90;;;;;;5128892;27;20338;-69
2022/10/08 09:40:28;;;;;;;9.17;3.17;;;15.00;99.90;;;;;;5128808;27;20201;-69
2022/10/08 09:43:16;;;;;;;7.40;3.40;;;15.10;99.90;;;;;;5128940;27;20201;-69
2022/10/08 09:45:46;;;;;;;9.40;3.60;;;15.00;99.90;;;;;;5128908;27;20232;-69
2022/10/08 09:48:24;;;;;;;7.73;3.63;;;15.00;99.90;;;;;;5128633;27;20205;-69
2022/10/08 09:51:03;;;;;;;8.33;3.10;;;15.10;99.90;;;;;;5128724;27;20204;-69
2022/10/08 09:53:38;;;;;;;8.37;3.07;;;15.20;99.90;;;;;;5110771;28;20966;-69
2022/10/08 09:56:07;;;;;;;5.20;3.47;;;15.20;99.90;;;;;;5128054;27;20185;-69
2022/10/08 09:58:46;;;;;;;6.20;3.17;;;15.30;99.90;;;;;;5128691;27;20210;-69
2022/10/08 10:01:16;;;;;;;7.53;3.60;;;15.30;99.90;;;;;;5128669;27;20244;-69
2022/10/08 10:03:48;;;;;;;7.00;3.03;;;15.20;99.90;;;;;;5128530;27;20672;-69
2022/10/08 10:06:15;;;;;;;6.30;2.93;;;15.20;99.90;;;;;;5128613;27;20190;-69
2022/10/08 10:08:47;;;;;;;7.43;2.87;;;15.20;99.90;;;;;;5127953;27;20202;-69
2022/10/08 10:11:21;;;;;;;7.93;2.97;;;15.20;99.90;;;;;;5128229;27;20262;-69
2022/10/08 10:13:49;;;;;;;10.40;3.37;;;15.20;99.90;;;;;;5127979;27;20225;-69
2022/10/08 10:16:23;;;;;;;8.43;3.20;;;15.10;99.90;;;;;;5128621;27;20228;-68
2022/10/08 10:18:56;;;;;;;8.33;3.07;;;15.10;99.90;;;;;;5128616;27;20194;-68
2022/10/08 10:21:30;;;;;;;8.73;3.13;;;15.10;99.90;;;;;;5128231;27;20208;-68
2022/10/08 10:24:07;;;;;;;5.23;3.00;;;15.10;99.90;;;;;;5128569;27;20201;-68
2022/10/08 10:26:37;;;;;;;8.70;2.80;;;15.10;99.90;;;;;;5127881;27;20306;-69
2022/10/08 10:29:08;;;;;;;16.03;6.13;;;15.00;99.90;;;;;;5128275;27;20202;-68
2022/10/08 10:31:40;;;;;;;6.90;3.03;;;15.00;99.90;;;;;;5128670;27;20205;-68
2022/10/08 10:34:12;;;;;;;5.80;3.03;;;15.00;99.90;;;;;;5128546;27;20220;-68
2022/10/08 10:36:43;;;;;;;7.03;3.27;;;15.10;99.90;;;;;;5128426;27;20194;-68
2022/10/08 10:39:23;;;;;;;9.27;3.10;;;15.10;99.90;;;;;;5128020;27;20647;-68
2022/10/08 10:41:58;;;;;;;6.47;2.73;;;15.00;99.90;;;;;;5128279;27;20252;-69
2022/10/08 10:44:31;;;;;;;7.37;3.47;;;15.00;99.90;;;;;;5107952;28;20221;-68
2022/10/08 10:47:02;;;;;;;7.83;3.07;;;15.00;99.90;;;;;;5127638;28;20228;-68
2022/10/08 10:49:34;;;;;;;8.23;3.10;;;15.10;99.90;;;;;;5128061;27;20194;-68
2022/10/08 10:52:10;;;;;;;7.30;3.00;;;15.00;99.90;;;;;;5124678;28;20711;-69
2022/10/08 10:54:54;;;;;;;4.53;2.60;;;15.00;99.90;;;;;;5128255;27;20909;-68
2022/10/08 10:57:34;;;;;;;5.20;2.90;;;15.00;99.90;;;;;;5128304;27;20198;-68
2022/10/08 11:00:05;;;;;;;6.20;3.10;;;14.90;99.90;;;;;;5127894;27;20239;-68
2022/10/08 11:02:42;;;;;;;7.83;3.03;;;14.90;99.90;;;;;;5128416;27;20186;-68
2022/10/08 11:05:16;;;;;;;10.10;3.10;;;15.00;99.90;;;;;;5128274;27;20193;-68
2022/10/08 11:07:57;;;;;;;8.53;3.20;;;14.90;99.90;;;;;;5128452;27;20212;-68
2022/10/08 11:10:40;;;;;;;7.43;2.90;;;14.90;99.90;;;;;;5108975;27;20209;-69
2022/10/08 11:13:21;;;;;;;8.73;3.00;;;14.90;99.90;;;;;;5107580;28;20213;-69
2022/10/08 11:15:56;;;;;;;10.97;3.20;;;14.80;99.90;;;;;;5107309;28;20214;-69
2022/10/08 11:18:34;;;;;;;10.47;3.40;;;14.80;99.90;;;;;;5125048;28;20284;-69
2022/10/08 11:21:12;;;;;;;11.50;3.20;;;14.80;99.90;;;;;;5127460;27;20201;-69
2022/10/08 11:24:08;;;;;;;9.03;3.50;;;14.70;99.90;;;;;;5111412;28;20217;-69
2022/10/08 11:26:42;;;;;;;6.43;3.60;;;14.60;99.90;;;;;;5111099;28;20198;-69
2022/10/08 11:29:19;;;;;;;9.03;3.70;;;14.50;99.90;;;;;;5111094;28;20186;-69
2022/10/08 11:31:47;;;;;;;4.40;3.20;;;14.40;99.90;;;;;;5110966;28;20190;-70
2022/10/08 11:34:22;;;;;;;5.43;3.40;;;14.30;99.90;;;;;;5122981;27;20222;-69
2022/10/08 11:36:57;;;;;;;8.77;3.20;;;14.20;99.90;;;;;;5131505;27;20211;-69
2022/10/08 11:39:31;;;;;;;11.23;3.93;;;14.30;99.90;;;;;;5131325;27;20583;-69
2022/10/08 11:42:07;;;;;;;7.43;3.63;;;14.30;99.90;;;;;;5130946;27;20213;-69
2022/10/08 11:44:36;;;;;;;9.10;3.43;;;14.30;99.90;;;;;;5130745;27;20315;-69
2022/10/08 11:47:47;;;;;;;7.27;3.73;;;14.30;99.90;;;;;;5130572;27;20748;-69
2022/10/08 11:50:26;;;;;;;7.67;3.90;;;14.30;99.90;;;;;;5130356;27;20716;-69
2022/10/08 11:52:55;;;;;;;6.33;3.93;;;14.30;99.90;;;;;;5130913;27;20205;-69
2022/10/08 11:55:25;;;;;;;9.70;4.17;;;14.40;99.90;;;;;;5130689;27;20608;-69
2022/10/08 11:57:57;;;;;;;8.13;4.30;;;14.40;99.90;;;;;;5130780;27;20213;-69
2022/10/08 12:00:38;;;;;;;7.40;4.27;;;14.60;99.90;;;;;;5130711;27;20237;-69
2022/10/08 12:03:16;;;;;;;7.40;3.70;;;14.80;99.90;;;;;;5130553;27;20681;-69
2022/10/08 12:05:48;;;;;;;7.43;3.77;;;14.90;99.90;;;;;;5124698;27;20212;-69
2022/10/08 12:08:49;;;;;;;7.60;4.23;;;15.00;99.90;;;;;;5130865;27;20197;-69
2022/10/08 12:11:48;;;;;;;8.87;4.50;;;15.10;99.90;;;;;;5130623;27;20254;-69
2022/10/08 12:14:45;;;;;;;6.23;3.80;;;15.20;99.90;;;;;;5130774;27;20292;-69
2022/10/08 12:17:13;;;;;;;4.93;3.30;;;15.10;99.90;;;;;;5130575;27;20209;-69
2022/10/08 12:20:08;;;;;;;8.47;4.00;;;15.10;99.90;;;;;;5130498;27;20212;-69
2022/10/08 12:22:45;;;;;;;6.50;4.13;;;15.00;99.90;;;;;;5130305;27;20638;-69
2022/10/08 12:26:02;;;;;;;9.53;4.27;;;15.00;99.90;;;;;;5130240;27;20625;-69
2022/10/08 12:28:49;;;;;;;4.87;3.63;;;14.90;99.90;;;;;;5130274;27;20668;-69
2022/10/08 12:31:25;;;;;;;5.90;4.07;;;14.90;99.90;;;;;;5130545;27;20223;-69
2022/10/08 12:34:00;;;;;;;8.17;3.80;;;14.80;99.90;;;;;;5130122;27;20648;-69
2022/10/08 12:36:36;;;;;;;5.57;3.63;;;14.70;99.90;;;;;;5115308;27;20223;-69
2022/10/08 12:39:07;;;;;;;4.97;2.30;;;14.80;99.90;;;;;;5113725;27;20217;-69
2022/10/08 12:41:41;;;;;;;4.87;2.27;;;14.90;99.90;;;;;;5109438;28;20187;-69
2022/10/08 12:44:26;;;;;;;3.70;2.50;;;14.90;99.90;;;;;;5128085;27;20221;-68
2022/10/08 12:47:00;;;;;;;6.93;2.30;;;15.20;99.90;;;;;;5130177;27;20204;-69
2022/10/08 12:49:35;;;;;;;4.03;2.37;;;15.70;99.90;;;;;;5118438;27;20197;-69
2022/10/08 12:52:05;;;;;;;4.63;2.33;;;16.10;99.90;;;;;;5119728;27;20224;-69
2022/10/08 12:54:33;;;;;;;6.23;1.97;;;16.20;99.90;;;;;;5129742;27;20691;-69
2022/10/08 12:57:07;;;;;;;4.43;2.40;;;16.50;99.90;;;;;;5129112;27;20198;-69
2022/10/08 12:59:36;;;;;;;3.80;1.60;;;16.60;99.90;;;;;;5109347;28;20194;-69
2022/10/08 13:02:02;;;;;;;6.10;2.10;;;16.70;99.90;;;;;;5128440;27;20202;-69
2022/10/08 13:04:32;;;;;;;4.47;2.10;;;16.80;99.90;;;;;;5129575;27;20663;-69
2022/10/08 13:06:59;;;;;;;4.13;1.90;;;16.90;99.90;;;;;;5129431;27;20659;-69